Catherine Desgagnes — VOWN — position and weather

sailwx.info

Track history (hours):
 
Tides and Currents Weather Stations Pressure Air Temp Water Temp Dewpoint Dewpoint Depression Visibility Wind Speed Wind Dir Waves Ship Positions

Catherine Desgagnes

Last reported at 2014-Oct-31 15:29 UTC. Time now 2014-Oct-31 15:46 UTC.
Position N 45°56' W 084°40'.

Length 125 m; draft 8 m.

Type: Ship. MMSI: 316001203.

Date/timePositionNaut miles runAvg speedWind from/ knotsBaromVisibWave heightAir tempDewpointWater temp
2014-Oct-31 15:29N 45°56' W 084°40'0 0.0
2014-Oct-31 14:23N 45°56' W 084°40'0 0.0
2014-Oct-31 13:29N 45°56' W 084°40'0 0.0
2014-Oct-31 12:29N 45°56' W 084°40'0 0.0
2014-Oct-31 11:33N 45°56' W 084°40'0 0.0
2014-Oct-31 10:33N 45°56' W 084°40'0 0.0
2014-Oct-31 09:33N 45°56' W 084°40'4 4.2
2014-Oct-31 08:33N 45°54' W 084°34'1212.5
2014-Oct-31 07:33N 45°48' W 084°19'1212.3
2014-Oct-31 06:33N 45°40' W 084°05'  
2014-Oct-28 05:29N 43°59' W 076°33'1112.0
2014-Oct-28 04:33N 44°07' W 076°22'103 7.3
2014-Oct-27 14:28N 45°08' W 074°25'8 8.4
2014-Oct-27 13:33N 45°13' W 074°17'3 2.1
2014-Oct-27 12:19N 45°14' W 074°14'0 0.0
2014-Oct-27 11:34N 45°14' W 074°14'2 1.9
2014-Oct-27 10:33N 45°14' W 074°11'9 8.8
2014-Oct-27 09:33N 45°15' W 073°59'4 4.4
2014-Oct-27 08:32N 45°18' W 073°55'1 1.2
2014-Oct-27 07:32N 45°20' W 073°55'8 8.0
2014-Oct-27 06:33N 45°24' W 073°46'7 7.3
2014-Oct-27 05:32N 45°24' W 073°35'2 1.8
2014-Oct-27 04:31N 45°24' W 073°33'5 5.3
2014-Oct-27 03:34N 45°29' W 073°31'2 1.6
2014-Oct-27 02:34N 45°31' W 073°31'2 1.9
2014-Oct-27 01:24N 45°33' W 073°31'0 0.0
2014-Oct-27 00:33N 45°33' W 073°31'0 0.0
2014-Oct-26 23:33N 45°33' W 073°31'0 0.0
2014-Oct-26 22:27N 45°33' W 073°31'0 0.0
2014-Oct-26 21:33N 45°33' W 073°31'0 0.0
2014-Oct-26 20:27N 45°33' W 073°31'0 0.0
2014-Oct-26 19:33N 45°33' W 073°31'0 0.0
2014-Oct-26 18:33N 45°33' W 073°31'0 0.0
2014-Oct-26 17:33N 45°33' W 073°31'0 0.0
2014-Oct-26 16:33N 45°33' W 073°31'0 0.0
2014-Oct-26 15:33N 45°33' W 073°31'0 0.0
2014-Oct-26 14:33N 45°33' W 073°31'0 0.1
2014-Oct-26 13:33N 45°33' W 073°31'6 6.5
2014-Oct-26 12:33N 45°39' W 073°28'10 9.6
2014-Oct-26 11:33N 45°47' W 073°21'10 9.8
2014-Oct-26 10:33N 45°56' W 073°13'8 7.8
2014-Oct-26 09:31N 46°03' W 073°08'0 0.0
2014-Oct-26 08:31N 46°03' W 073°08'0 0.0
2014-Oct-26 07:31N 46°03' W 073°08'0 0.0
2014-Oct-26 06:28N 46°03' W 073°08'0 0.0
2014-Oct-26 05:31N 46°03' W 073°08'0 0.0
2014-Oct-26 04:31N 46°03' W 073°08'0 0.0
2014-Oct-26 03:31N 46°03' W 073°08'0 0.0
2014-Oct-26 02:31N 46°03' W 073°08'0 0.0
2014-Oct-26 01:31N 46°03' W 073°08'0 0.0
2014-Oct-26 00:31N 46°03' W 073°08'0 0.0
2014-Oct-25 23:22N 46°03' W 073°08'0 0.0
2014-Oct-25 22:25N 46°03' W 073°08'0 0.0
2014-Oct-25 21:13N 46°03' W 073°08'0 0.0
2014-Oct-25 16:13N 46°03' W 073°08'0 0.0
2014-Oct-25 15:22N 46°03' W 073°08'0 0.0
2014-Oct-25 14:31N 46°03' W 073°08'0 0.0
2014-Oct-25 13:31N 46°03' W 073°08'0 0.0
2014-Oct-25 12:31N 46°03' W 073°08'0 0.0
2014-Oct-25 11:31N 46°03' W 073°08'0 0.0
2014-Oct-25 10:31N 46°03' W 073°08'0 0.0
2014-Oct-25 09:31N 46°03' W 073°08'0 0.0
2014-Oct-25 08:31N 46°03' W 073°08'0 0.0
2014-Oct-25 07:31N 46°03' W 073°08'0 0.0
2014-Oct-25 06:31N 46°03' W 073°08'0 0.0
2014-Oct-25 05:31N 46°03' W 073°08'0 0.0
2014-Oct-25 04:31N 46°03' W 073°08'0 0.0
2014-Oct-25 03:31N 46°03' W 073°08'0 0.0
2014-Oct-25 02:31N 46°03' W 073°08'0 0.0
2014-Oct-25 01:31N 46°03' W 073°08'0 0.0
2014-Oct-25 00:28N 46°03' W 073°08'0 0.0
2014-Oct-24 23:31N 46°03' W 073°08'0 0.0
2014-Oct-24 22:31N 46°03' W 073°08'0 0.0
2014-Oct-24 21:31N 46°03' W 073°08'1 0.7
2014-Oct-24 20:16N 46°03' W 073°07'20 0.6
2014-Oct-23 13:33N 46°15' W 072°44'1010.2
2014-Oct-23 12:33N 46°20' W 072°32'1110.7
2014-Oct-23 11:33N 46°26' W 072°19'  
Track history (hours):
 
Tides and Currents Weather Stations Pressure Air Temp Water Temp Dewpoint Dewpoint Depression Visibility Wind Speed Wind Dir Waves Ship Positions

Catherine Desgagnes

Last reported at 2014-Oct-31 15:29 UTC. Time now 2014-Oct-31 15:46 UTC.
Position N 45°56' W 084°40'.

Length 125 m; draft 8 m.

Type: Ship. MMSI: 316001203.

Date/timePositionNaut miles runAvg speedWind from/ knotsBaromVisibWave heightAir tempDewpointWater temp
2014-Oct-31 15:29N 45°56' W 084°40'0 0.0
2014-Oct-31 14:23N 45°56' W 084°40'0 0.0
2014-Oct-31 13:29N 45°56' W 084°40'0 0.0
2014-Oct-31 12:29N 45°56' W 084°40'0 0.0
2014-Oct-31 11:33N 45°56' W 084°40'0 0.0
2014-Oct-31 10:33N 45°56' W 084°40'0 0.0
2014-Oct-31 09:33N 45°56' W 084°40'4 4.2
2014-Oct-31 08:33N 45°54' W 084°34'1212.5
2014-Oct-31 07:33N 45°48' W 084°19'1212.3
2014-Oct-31 06:33N 45°40' W 084°05'  
2014-Oct-28 05:29N 43°59' W 076°33'1112.0
2014-Oct-28 04:33N 44°07' W 076°22'103 7.3
2014-Oct-27 14:28N 45°08' W 074°25'8 8.4
2014-Oct-27 13:33N 45°13' W 074°17'3 2.1
2014-Oct-27 12:19N 45°14' W 074°14'0 0.0
2014-Oct-27 11:34N 45°14' W 074°14'2 1.9
2014-Oct-27 10:33N 45°14' W 074°11'9 8.8
2014-Oct-27 09:33N 45°15' W 073°59'4 4.4
2014-Oct-27 08:32N 45°18' W 073°55'1 1.2
2014-Oct-27 07:32N 45°20' W 073°55'8 8.0
2014-Oct-27 06:33N 45°24' W 073°46'7 7.3
2014-Oct-27 05:32N 45°24' W 073°35'2 1.8
2014-Oct-27 04:31N 45°24' W 073°33'5 5.3
2014-Oct-27 03:34N 45°29' W 073°31'2 1.6
2014-Oct-27 02:34N 45°31' W 073°31'2 1.9
2014-Oct-27 01:24N 45°33' W 073°31'0 0.0
2014-Oct-27 00:33N 45°33' W 073°31'0 0.0
2014-Oct-26 23:33N 45°33' W 073°31'0 0.0
2014-Oct-26 22:27N 45°33' W 073°31'0 0.0
2014-Oct-26 21:33N 45°33' W 073°31'0 0.0
2014-Oct-26 20:27N 45°33' W 073°31'0 0.0
2014-Oct-26 19:33N 45°33' W 073°31'0 0.0
2014-Oct-26 18:33N 45°33' W 073°31'0 0.0
2014-Oct-26 17:33N 45°33' W 073°31'0 0.0
2014-Oct-26 16:33N 45°33' W 073°31'0 0.0
2014-Oct-26 15:33N 45°33' W 073°31'0 0.0
2014-Oct-26 14:33N 45°33' W 073°31'0 0.1
2014-Oct-26 13:33N 45°33' W 073°31'6 6.5
2014-Oct-26 12:33N 45°39' W 073°28'10 9.6
2014-Oct-26 11:33N 45°47' W 073°21'10 9.8
2014-Oct-26 10:33N 45°56' W 073°13'8 7.8
2014-Oct-26 09:31N 46°03' W 073°08'0 0.0
2014-Oct-26 08:31N 46°03' W 073°08'0 0.0
2014-Oct-26 07:31N 46°03' W 073°08'0 0.0
2014-Oct-26 06:28N 46°03' W 073°08'0 0.0
2014-Oct-26 05:31N 46°03' W 073°08'0 0.0
2014-Oct-26 04:31N 46°03' W 073°08'0 0.0
2014-Oct-26 03:31N 46°03' W 073°08'0 0.0
2014-Oct-26 02:31N 46°03' W 073°08'0 0.0
2014-Oct-26 01:31N 46°03' W 073°08'0 0.0
2014-Oct-26 00:31N 46°03' W 073°08'0 0.0
2014-Oct-25 23:22N 46°03' W 073°08'0 0.0
2014-Oct-25 22:25N 46°03' W 073°08'0 0.0
2014-Oct-25 21:13N 46°03' W 073°08'0 0.0
2014-Oct-25 16:13N 46°03' W 073°08'0 0.0
2014-Oct-25 15:22N 46°03' W 073°08'0 0.0
2014-Oct-25 14:31N 46°03' W 073°08'0 0.0
2014-Oct-25 13:31N 46°03' W 073°08'0 0.0
2014-Oct-25 12:31N 46°03' W 073°08'0 0.0
2014-Oct-25 11:31N 46°03' W 073°08'0 0.0
2014-Oct-25 10:31N 46°03' W 073°08'0 0.0
2014-Oct-25 09:31N 46°03' W 073°08'0 0.0
2014-Oct-25 08:31N 46°03' W 073°08'0 0.0
2014-Oct-25 07:31N 46°03' W 073°08'0 0.0
2014-Oct-25 06:31N 46°03' W 073°08'0 0.0
2014-Oct-25 05:31N 46°03' W 073°08'0 0.0
2014-Oct-25 04:31N 46°03' W 073°08'0 0.0
2014-Oct-25 03:31N 46°03' W 073°08'0 0.0
2014-Oct-25 02:31N 46°03' W 073°08'0 0.0
2014-Oct-25 01:31N 46°03' W 073°08'0 0.0
2014-Oct-25 00:28N 46°03' W 073°08'0 0.0
2014-Oct-24 23:31N 46°03' W 073°08'0 0.0
2014-Oct-24 22:31N 46°03' W 073°08'0 0.0
2014-Oct-24 21:31N 46°03' W 073°08'1 0.7
2014-Oct-24 20:16N 46°03' W 073°07'20 0.6
2014-Oct-23 13:33N 46°15' W 072°44'1010.2
2014-Oct-23 12:33N 46°20' W 072°32'1110.7
2014-Oct-23 11:33N 46°26' W 072°19'  

Dump ship's entire track history